Time;durP1;ratioP1;P1;durP2;ratioP2;P2;SDS_P1;SDS_P2;PMS_P1;PMS_P2;Temp;Humidity;BMP_temperature;BMP_pressure;BME280_temperature;BME280_humidity;BME280_pressure;Samples;Min_cycle;Max_cycle;Signal;HPM_P1;HPM_P2
2022/01/26 00:00:30;;;;;;;35.33;14.53;;;;;;;0.66;100.00;100057.66;4823321;29;20039;-60
2022/01/26 00:05:53;;;;;;;38.33;14.80;;;;;;;0.56;100.00;100064.53;4822958;29;20342;-62
2022/01/26 00:08:23;;;;;;;37.43;14.43;;;;;;;0.80;100.00;100056.66;4822909;29;20332;-61
2022/01/26 00:10:49;;;;;;;33.73;14.40;;;;;;;0.86;100.00;100057.97;4822783;29;20265;-62
2022/01/26 00:13:15;;;;;;;35.63;14.00;;;;;;;0.62;100.00;100057.97;4822746;29;20761;-62
2022/01/26 00:15:40;;;;;;;37.57;14.00;;;;;;;0.67;100.00;100058.50;4822799;29;20453;-62
2022/01/26 00:18:06;;;;;;;30.00;12.63;;;;;;;0.68;100.00;100058.38;4822696;29;20060;-62
2022/01/26 00:20:49;;;;;;;33.83;13.17;;;;;;;0.60;100.00;100054.59;4822783;29;20034;-61
2022/01/26 00:28:34;;;;;;;36.37;13.47;;;;;;;0.61;100.00;100057.13;4822869;29;20038;-60
2022/01/26 00:38:50;;;;;;;35.07;14.33;;;;;;;0.56;100.00;100056.63;4822454;29;20373;-62
2022/01/26 00:41:21;;;;;;;39.67;14.43;;;;;;;0.49;100.00;100057.16;4822500;29;20087;-61
2022/01/26 00:43:53;;;;;;;37.90;15.23;;;;;;;0.50;100.00;100058.84;4822484;29;20062;-60
2022/01/26 00:46:19;;;;;;;39.78;14.90;;;;;;;0.48;100.00;100063.38;4822460;29;20656;-62
2022/01/26 00:48:45;;;;;;;42.13;15.73;;;;;;;0.45;100.00;100061.84;4822415;29;20034;-62
2022/01/26 00:51:15;;;;;;;39.63;15.63;;;;;;;0.47;100.00;100065.16;4822309;29;20873;-62
2022/01/26 00:53:45;;;;;;;39.90;14.17;;;;;;;0.53;100.00;100059.47;4822521;29;20312;-62
2022/01/26 00:56:12;;;;;;;37.20;13.70;;;;;;;0.46;100.00;100063.50;4822221;29;20262;-62
2022/01/26 00:58:38;;;;;;;41.57;15.47;;;;;;;0.50;100.00;100057.06;4822358;29;20274;-62
2022/01/26 01:01:04;;;;;;;37.90;13.97;;;;;;;0.60;100.00;100054.59;4822307;29;20322;-61
2022/01/26 01:03:33;;;;;;;37.20;13.60;;;;;;;0.52;100.00;100055.16;4823072;29;20034;-62
2022/01/26 01:08:25;;;;;;;35.10;14.23;;;;;;;0.49;100.00;100051.91;4825634;29;20277;-61
2022/01/26 01:10:53;;;;;;;33.37;13.73;;;;;;;0.51;100.00;100050.00;4825075;29;20354;-62
2022/01/26 01:13:23;;;;;;;33.53;13.23;;;;;;;0.57;100.00;100045.16;4824920;29;20261;-62
2022/01/26 01:15:51;;;;;;;33.60;13.17;;;;;;;0.61;100.00;100045.75;4824946;29;20745;-62
2022/01/26 01:18:22;;;;;;;34.50;13.47;;;;;;;0.63;100.00;100049.13;4824786;29;20274;-60
2022/01/26 01:21:48;;;;;;;35.60;13.90;;;;;;;0.58;100.00;100046.81;4825510;29;20307;-62
2022/01/26 01:26:46;;;;;;;32.83;13.33;;;;;;;0.57;100.00;100049.59;4825211;29;20361;-62
2022/01/26 01:32:12;;;;;;;34.13;12.67;;;;;;;0.48;100.00;100052.84;4812956;29;20282;-62
2022/01/26 01:34:39;;;;;;;34.20;12.85;;;;;;;0.46;100.00;100055.63;4825566;29;20288;-61
2022/01/26 01:37:08;;;;;;;31.23;13.00;;;;;;;0.54;100.00;100055.91;4825141;29;20033;-61
2022/01/26 01:39:36;;;;;;;34.70;13.00;;;;;;;0.57;100.00;100050.44;4825227;29;20327;-62
2022/01/26 01:42:07;;;;;;;38.07;14.73;;;;;;;0.48;100.00;100047.59;4824963;29;20346;-60
2022/01/26 01:44:33;;;;;;;35.87;13.10;;;;;;;0.51;100.00;100050.00;4825475;29;20301;-62
2022/01/26 01:46:59;;;;;;;37.43;14.33;;;;;;;0.56;100.00;100045.28;4824970;29;20285;-60
2022/01/26 01:49:26;;;;;;;42.70;15.43;;;;;;;0.56;100.00;100042.66;4825173;29;20686;-62
2022/01/26 01:51:59;;;;;;;43.13;14.90;;;;;;;0.49;100.00;100038.75;4825168;29;20262;-61
2022/01/26 01:54:25;;;;;;;46.42;16.80;;;;;;;0.43;100.00;100033.97;4825183;29;20280;-61
2022/01/26 01:56:55;;;;;;;46.10;15.30;;;;;;;0.42;100.00;100037.53;4825121;29;20492;-62
2022/01/26 01:59:27;;;;;;;38.10;14.13;;;;;;;0.40;100.00;100035.00;4825094;29;20034;-62
2022/01/26 02:01:53;;;;;;;42.00;15.63;;;;;;;0.51;100.00;100042.13;4824998;29;20341;-62
2022/01/26 02:04:19;;;;;;;40.03;14.83;;;;;;;0.42;100.00;100042.78;4824778;29;20350;-62
2022/01/26 02:06:45;;;;;;;39.83;14.73;;;;;;;0.34;100.00;100038.94;4823560;29;20738;-62
2022/01/26 02:09:11;;;;;;;38.73;14.77;;;;;;;0.48;100.00;100035.28;4824578;29;20106;-62
2022/01/26 02:12:11;;;;;;;40.13;14.80;;;;;;;0.37;100.00;100037.84;4824498;29;20050;-62
2022/01/26 02:14:41;;;;;;;40.40;15.37;;;;;;;0.47;100.00;100038.03;4823933;29;20366;-62
2022/01/26 02:17:40;;;;;;;36.57;14.17;;;;;;;0.30;100.00;100034.00;4823961;29;20348;-62
2022/01/26 02:58:58;;;;;;;38.67;14.88;;;;;;;0.20;100.00;99999.66;4767685;30;20090;-62
2022/01/26 03:01:50;;;;;;;38.72;14.18;;;;;;;0.28;100.00;100006.97;4767735;30;20126;-61
2022/01/26 03:04:43;;;;;;;42.03;14.55;;;;;;;0.22;100.00;99999.53;4767002;30;20211;-62
2022/01/26 03:07:15;;;;;;;40.28;13.93;;;;;;;0.13;100.00;100003.66;4766908;30;20102;-62
2022/01/26 03:09:46;;;;;;;37.30;14.53;;;;;;;0.13;100.00;99998.38;4766550;30;20045;-62
2022/01/26 03:12:26;;;;;;;42.03;13.80;;;;;;;0.28;100.00;100004.34;4767098;30;20303;-61
2022/01/26 03:14:57;;;;;;;43.17;15.27;;;;;;;0.07;100.00;100000.63;4767444;30;20048;-61
2022/01/26 03:17:42;;;;;;;44.10;14.73;;;;;;;0.06;100.00;99996.31;4767552;30;20035;-61
2022/01/26 03:20:12;;;;;;;39.78;15.18;;;;;;;0.14;100.00;99992.19;4767308;30;20036;-62
2022/01/26 03:33:52;;;;;;;37.65;14.32;;;;;;;0.24;100.00;99997.63;4771675;29;20032;-61
2022/01/26 03:36:12;;;;;;;44.22;15.30;;;;;;;0.11;100.00;100002.09;4805054;29;20051;-61
2022/01/26 03:38:47;;;;;;;39.27;14.83;;;;;;;0.16;100.00;99998.19;4805153;29;20110;-61
2022/01/26 03:43:42;;;;;;;35.57;13.33;;;;;;;0.12;100.00;100009.00;4804946;29;20271;-61
2022/01/26 03:46:07;;;;;;;36.30;13.85;;;;;;;0.13;100.00;100006.28;4804844;29;20274;-61
2022/01/26 03:48:33;;;;;;;37.70;14.97;;;;;;;0.25;100.00;99999.28;4808118;29;20048;-62
2022/01/26 03:51:00;;;;;;;33.93;13.13;;;;;;;0.13;100.00;100003.66;4823094;29;20034;-61
2022/01/26 03:53:26;;;;;;;37.40;13.98;;;;;;;0.15;100.00;99996.50;4822944;29;20056;-61
2022/01/26 03:55:51;;;;;;;36.27;14.27;;;;;;;0.24;100.00;99993.19;4823059;29;20501;-61
2022/01/26 03:58:17;;;;;;;34.27;13.80;;;;;;;0.19;100.00;100002.38;4822959;29;20113;-61
2022/01/26 04:00:43;;;;;;;34.37;13.27;;;;;;;0.18;100.00;99996.28;4822961;29;20062;-61
2022/01/26 04:03:08;;;;;;;34.97;13.60;;;;;;;0.16;100.00;99999.97;4822872;29;20184;-61
2022/01/26 04:05:34;;;;;;;30.43;12.23;;;;;;;0.25;100.00;100000.13;4822901;29;20038;-62
2022/01/26 04:08:06;;;;;;;36.93;13.87;;;;;;;0.19;100.00;100005.84;4822872;29;20038;-62
2022/01/26 04:13:03;;;;;;;33.17;13.27;;;;;;;0.22;100.00;100000.38;4840580;29;20054;-60
2022/01/26 04:15:32;;;;;;;33.50;12.87;;;;;;;0.20;100.00;99997.03;4840700;29;20037;-61
2022/01/26 04:17:59;;;;;;;34.47;13.13;;;;;;;0.16;100.00;99998.19;4840718;29;20060;-60
2022/01/26 04:20:28;;;;;;;34.22;12.93;;;;;;;0.08;100.00;99997.06;4840663;29;20335;-61
2022/01/26 04:23:07;;;;;;;30.77;12.83;;;;;;;0.08;100.00;99994.44;4840578;29;20034;-61
2022/01/26 04:25:33;;;;;;;28.83;12.60;;;;;;;0.02;100.00;99990.44;4840639;29;20817;-61
2022/01/26 04:28:05;;;;;;;31.63;12.45;;;;;;;0.03;100.00;99988.66;4840754;29;20281;-61
2022/01/26 04:30:30;;;;;;;32.60;12.27;;;;;;;0.05;100.00;99994.63;4839420;29;20057;-61
2022/01/26 04:33:00;;;;;;;26.03;11.53;;;;;;;0.00;100.00;99993.16;4840657;29;20308;-61
2022/01/26 04:35:26;;;;;;;28.52;12.60;;;;;;;-0.07;100.00;99991.09;4829767;29;20073;-62
2022/01/26 04:40:42;;;;;;;31.17;11.20;;;;;;;0.00;100.00;99998.41;4822821;29;20098;-61
2022/01/26 04:43:15;;;;;;;27.88;11.38;;;;;;;0.07;100.00;99996.22;4822213;29;20086;-61
2022/01/26 04:45:41;;;;;;;27.55;10.93;;;;;;;0.15;100.00;99991.25;4822653;29;20042;-61
2022/01/26 04:48:06;;;;;;;29.13;12.30;;;;;;;0.22;100.00;99994.28;4822611;29;20042;-61
2022/01/26 04:50:32;;;;;;;23.53;11.33;;;;;;;0.10;100.00;99998.63;4822477;29;20525;-61
2022/01/26 04:52:57;;;;;;;28.03;11.47;;;;;;;0.13;100.00;100001.00;4822481;29;20068;-61
2022/01/26 04:55:23;;;;;;;26.10;11.37;;;;;;;-0.02;100.00;99992.47;4822506;29;20030;-61
2022/01/26 04:57:48;;;;;;;26.17;10.80;;;;;;;-0.05;100.00;99990.03;4822574;29;20031;-60
2022/01/26 05:00:14;;;;;;;28.00;10.63;;;;;;;0.06;100.00;99991.91;4822434;29;20068;-61
2022/01/26 05:02:39;;;;;;;29.07;11.10;;;;;;;0.01;100.00;99999.25;4822619;29;20531;-61
2022/01/26 05:05:05;;;;;;;28.17;12.60;;;;;;;0.24;100.00;99998.47;4822381;29;20030;-61
2022/01/26 05:07:31;;;;;;;29.67;11.23;;;;;;;0.24;100.00;99993.19;4822294;29;20049;-61
2022/01/26 05:09:56;;;;;;;27.90;11.33;;;;;;;0.10;100.00;99993.38;4822322;29;20038;-61
2022/01/26 05:12:23;;;;;;;26.53;11.70;;;;;;;0.18;100.00;100001.53;4821936;29;20058;-61
2022/01/26 05:14:49;;;;;;;27.85;12.65;;;;;;;0.21;100.00;99998.69;4822168;29;20026;-61
2022/01/26 05:17:20;;;;;;;29.42;11.52;;;;;;;0.19;100.00;99994.50;4805775;29;20117;-61
2022/01/26 05:19:46;;;;;;;25.85;11.20;;;;;;;0.04;100.00;99999.03;4820995;29;20061;-60
2022/01/26 05:22:12;;;;;;;25.85;11.13;;;;;;;0.14;100.00;100001.84;4822006;29;20041;-61
2022/01/26 05:24:38;;;;;;;27.23;12.03;;;;;;;0.17;100.00;100006.91;4820758;29;20042;-61
2022/01/26 05:27:04;;;;;;;31.20;12.03;;;;;;;0.21;100.00;100011.00;4821964;29;20038;-60
2022/01/26 05:29:29;;;;;;;25.20;11.93;;;;;;;0.27;100.00;100005.28;4821958;29;20077;-60
2022/01/26 05:31:55;;;;;;;25.73;11.80;;;;;;;0.20;100.00;100006.69;4821774;29;20274;-59
2022/01/26 05:34:20;;;;;;;31.20;12.30;;;;;;;0.23;100.00;100006.47;4822042;29;20034;-60
2022/01/26 05:36:46;;;;;;;34.30;13.17;;;;;;;0.25;100.00;100008.03;4821937;29;20035;-61
2022/01/26 05:39:12;;;;;;;29.03;11.83;;;;;;;0.18;100.00;100000.69;4820806;29;20046;-61
2022/01/26 05:41:38;;;;;;;29.53;11.70;;;;;;;0.14;100.00;100010.59;4821918;29;20031;-60
2022/01/26 05:44:06;;;;;;;27.50;11.90;;;;;;;0.21;100.00;100001.31;4821786;29;20555;-62
2022/01/26 05:46:42;;;;;;;30.58;11.93;;;;;;;0.22;100.00;100004.81;4821659;29;20038;-61
2022/01/26 05:49:09;;;;;;;29.98;11.70;;;;;;;0.16;100.00;100013.94;4821695;29;20034;-61
2022/01/26 05:51:35;;;;;;;29.53;12.40;;;;;;;0.18;100.00;100009.44;4825224;29;20099;-60
2022/01/26 05:54:05;;;;;;;28.50;13.03;;;;;;;0.17;100.00;100006.91;4825014;29;20278;-61
2022/01/26 05:56:31;;;;;;;30.67;12.57;;;;;;;0.19;100.00;99999.75;4824770;29;20121;-60
2022/01/26 05:58:58;;;;;;;31.95;12.27;;;;;;;0.18;100.00;100000.69;4824735;29;20083;-60
2022/01/26 06:01:24;;;;;;;30.60;12.53;;;;;;;0.18;100.00;100004.16;4808328;29;20038;-61
2022/01/26 06:03:50;;;;;;;30.20;11.93;;;;;;;0.28;100.00;100001.72;4824847;29;20274;-60
2022/01/26 06:06:16;;;;;;;30.60;11.83;;;;;;;0.38;100.00;100004.50;4824635;29;20045;-61
2022/01/26 06:08:42;;;;;;;30.17;11.75;;;;;;;0.35;100.00;100009.03;4824840;29;20117;-60
2022/01/26 06:11:08;;;;;;;32.13;11.97;;;;;;;0.23;100.00;100011.75;4824413;29;20137;-61
2022/01/26 06:13:33;;;;;;;31.07;12.83;;;;;;;0.41;100.00;100012.19;4824491;29;20030;-61
2022/01/26 06:16:00;;;;;;;26.73;11.90;;;;;;;0.36;100.00;100015.13;4823157;29;20278;-61
2022/01/26 06:18:25;;;;;;;26.70;11.47;;;;;;;0.31;100.00;100012.84;4824287;29;20045;-61
2022/01/26 06:20:51;;;;;;;28.53;11.27;;;;;;;0.35;100.00;100018.72;4823400;29;20760;-61
2022/01/26 06:23:17;;;;;;;26.87;11.53;;;;;;;0.39;100.00;100021.97;4824492;29;20034;-61
2022/01/26 06:25:44;;;;;;;31.97;12.53;;;;;;;0.36;100.00;100018.59;4824517;29;20656;-61
2022/01/26 06:28:12;;;;;;;25.73;10.88;;;;;;;0.33;100.00;100013.59;4824692;29;20034;-61
2022/01/26 06:30:40;;;;;;;25.90;11.52;;;;;;;0.40;100.00;100008.72;4824125;29;20401;-60
2022/01/26 06:33:06;;;;;;;27.07;11.23;;;;;;;0.41;100.00;100012.19;4823060;29;20040;-60
2022/01/26 06:35:34;;;;;;;32.00;11.63;;;;;;;0.41;100.00;100006.94;4822988;29;20361;-60
2022/01/26 06:38:00;;;;;;;28.83;11.70;;;;;;;0.30;100.00;100007.72;4824238;29;20281;-60
2022/01/26 06:40:26;;;;;;;30.97;12.03;;;;;;;0.26;100.00;100014.13;4824231;29;20278;-60
2022/01/26 06:42:56;;;;;;;29.60;11.60;;;;;;;0.42;100.00;100011.25;4824059;29;20040;-60
2022/01/26 06:45:25;;;;;;;30.13;11.93;;;;;;;0.42;100.00;100019.13;4824158;29;20381;-61
2022/01/26 06:48:14;;;;;;;31.90;12.30;;;;;;;0.30;100.00;100018.22;4824208;29;20281;-60
2022/01/26 06:50:40;;;;;;;26.60;11.77;;;;;;;0.24;100.00;100029.16;4822917;29;20356;-60
2022/01/26 06:53:06;;;;;;;34.73;13.37;;;;;;;0.36;100.00;100017.75;4823990;29;20297;-61
2022/01/26 06:55:32;;;;;;;34.23;12.47;;;;;;;0.31;100.00;100015.50;4823991;29;20771;-61
2022/01/26 06:57:57;;;;;;;29.13;11.70;;;;;;;0.33;100.00;100016.22;4824068;29;20027;-60
2022/01/26 07:00:23;;;;;;;30.07;11.70;;;;;;;0.13;100.00;100022.03;4823902;29;20030;-60
2022/01/26 07:02:48;;;;;;;28.47;11.87;;;;;;;0.25;100.00;100012.44;4823147;29;20046;-61
2022/01/26 07:05:14;;;;;;;27.70;12.23;;;;;;;0.22;100.00;100018.78;4823817;29;20034;-61
2022/01/26 07:07:41;;;;;;;30.13;12.07;;;;;;;0.31;100.00;100022.53;4823768;29;20034;-60
2022/01/26 07:10:09;;;;;;;32.90;12.33;;;;;;;0.19;100.00;100015.53;4823968;29;20102;-60
2022/01/26 07:12:34;;;;;;;52.23;18.90;;;;;;;0.22;100.00;100020.56;4830109;29;20695;-61
2022/01/26 07:23:13;;;;;;;34.05;13.48;;;;;;;0.33;100.00;100018.00;4823463;29;19924;-60
2022/01/26 07:25:40;;;;;;;34.50;13.40;;;;;;;0.35;100.00;100026.59;4823512;29;20401;-60
2022/01/26 07:28:05;;;;;;;33.17;12.63;;;;;;;0.44;100.00;100019.88;4822370;29;20445;-60
2022/01/26 07:30:34;;;;;;;33.07;12.87;;;;;;;0.35;100.00;100018.72;4823528;29;20350;-61
2022/01/26 07:33:00;;;;;;;32.47;12.82;;;;;;;0.29;100.00;100027.06;4831112;29;20030;-60
2022/01/26 07:35:26;;;;;;;30.60;12.40;;;;;;;0.38;100.00;100031.66;4832008;29;20045;-61
2022/01/26 07:37:53;;;;;;;29.23;11.77;;;;;;;0.48;100.00;100032.66;4841586;29;20108;-60
2022/01/26 07:40:19;;;;;;;27.63;11.73;;;;;;;0.26;100.00;100028.09;4828845;29;20026;-60
2022/01/26 07:42:45;;;;;;;30.93;12.20;;;;;;;0.36;100.00;100030.91;4823254;29;20645;-62
2022/01/26 07:45:11;;;;;;;35.60;12.20;;;;;;;0.38;100.00;100029.03;4825662;29;21473;-60
2022/01/26 07:47:38;;;;;;;32.30;12.70;;;;;;;0.40;100.00;100026.28;4828670;29;20038;-63
2022/01/26 07:50:09;;;;;;;33.47;12.50;;;;;;;0.39;100.00;100033.34;4836202;29;20364;-60
2022/01/26 07:52:40;;;;;;;34.10;12.80;;;;;;;0.36;100.00;100028.28;4840954;29;20325;-61
2022/01/26 07:55:07;;;;;;;30.70;12.40;;;;;;;0.25;100.00;100028.22;4825842;29;20357;-61
2022/01/26 07:57:32;;;;;;;30.10;11.57;;;;;;;0.35;100.00;100030.06;4822395;29;20274;-61
2022/01/26 07:59:58;;;;;;;29.17;11.80;;;;;;;0.33;100.00;100026.75;4822857;29;20292;-61
2022/01/26 08:02:24;;;;;;;37.23;15.20;;;;;;;0.33;100.00;100020.63;4822896;29;20034;-61
2022/01/26 08:04:49;;;;;;;33.87;12.77;;;;;;;0.40;100.00;100023.66;4823045;29;20062;-61
2022/01/26 08:07:15;;;;;;;33.00;13.63;;;;;;;0.44;100.00;100033.00;4822741;29;20022;-61
2022/01/26 08:09:44;;;;;;;38.30;13.70;;;;;;;0.42;100.00;100022.59;4820608;29;20042;-60
2022/01/26 08:12:15;;;;;;;39.27;14.30;;;;;;;0.44;100.00;100025.13;4821280;29;20050;-66
2022/01/26 08:14:41;;;;;;;34.80;13.68;;;;;;;0.46;100.00;100018.81;4821889;29;20640;-63
2022/01/26 08:17:08;;;;;;;37.77;14.20;;;;;;;0.55;100.00;100023.41;4821325;29;20448;-70
2022/01/26 08:19:34;;;;;;;40.53;15.37;;;;;;;0.44;100.00;100025.97;4822328;29;20274;-62
2022/01/26 08:22:01;;;;;;;39.97;13.93;;;;;;;0.48;100.00;100023.94;4821860;29;20266;-62
2022/01/26 08:24:28;;;;;;;46.43;16.87;;;;;;;0.45;100.00;100025.03;4822280;29;20034;-62
2022/01/26 08:26:56;;;;;;;43.23;14.60;;;;;;;0.32;100.00;100021.59;4821824;29;20317;-62
2022/01/26 08:29:28;;;;;;;46.37;16.00;;;;;;;0.30;100.00;100015.59;4821609;29;20285;-64
2022/01/26 08:31:54;;;;;;;46.00;16.40;;;;;;;0.27;100.00;100016.66;4825286;29;20647;-63
2022/01/26 08:34:19;;;;;;;49.00;16.20;;;;;;;0.22;100.00;100023.19;4822695;29;20274;-61
2022/01/26 08:36:45;;;;;;;49.57;16.20;;;;;;;0.21;100.00;100014.47;4821405;29;20393;-61
2022/01/26 08:39:11;;;;;;;48.83;15.80;;;;;;;0.19;100.00;100007.63;4822407;29;20038;-61
2022/01/26 08:41:37;;;;;;;45.33;15.40;;;;;;;0.12;100.00;100009.00;4821190;29;20026;-62
2022/01/26 08:44:03;;;;;;;48.33;16.93;;;;;;;-0.12;100.00;100004.56;4827196;29;20664;-62
2022/01/26 08:46:29;;;;;;;51.93;17.47;;;;;;;-0.03;100.00;100009.16;4819235;29;20046;-62
2022/01/26 08:48:54;;;;;;;45.70;14.63;;;;;;;-0.09;100.00;100012.22;4819935;29;20072;-62
2022/01/26 08:51:20;;;;;;;42.23;14.30;;;;;;;0.11;100.00;99994.22;4829324;29;20057;-61
2022/01/26 08:53:46;;;;;;;36.97;12.70;;;;;;;0.26;100.00;100001.81;4832036;29;20039;-62
2022/01/26 08:56:12;;;;;;;43.43;14.00;;;;;;;0.35;100.00;100005.56;4830653;29;20069;-64
2022/01/26 08:58:38;;;;;;;43.10;14.07;;;;;;;0.38;100.00;100009.78;4821790;29;20030;-63
2022/01/26 09:01:03;;;;;;;37.70;13.03;;;;;;;0.51;100.00;100008.78;4822348;29;20621;-61
2022/01/26 09:03:29;;;;;;;38.53;13.13;;;;;;;0.47;100.00;100006.47;4822153;29;20039;-62
2022/01/26 09:05:54;;;;;;;43.00;13.60;;;;;;;0.56;100.00;100004.03;4832262;29;20034;-62
2022/01/26 09:08:20;;;;;;;36.93;13.53;;;;;;;0.44;100.00;99999.66;4840295;29;20033;-62
2022/01/26 09:10:46;;;;;;;38.13;13.60;;;;;;;0.49;100.00;100002.78;4839958;29;20037;-63
2022/01/26 09:13:11;;;;;;;42.47;14.27;;;;;;;0.45;100.00;99997.88;4826764;29;20034;-62
2022/01/26 09:15:39;;;;;;;43.57;14.53;;;;;;;0.64;100.00;100003.47;4821893;29;20034;-62
2022/01/26 09:18:07;;;;;;;47.47;15.00;;;;;;;0.73;100.00;100002.78;4821879;29;20114;-62
2022/01/26 09:20:38;;;;;;;40.17;13.20;;;;;;;0.57;100.00;100015.41;4821542;29;20026;-61
2022/01/26 09:23:04;;;;;;;37.97;13.80;;;;;;;1.01;100.00;100012.13;4821639;29;20305;-62
2022/01/26 09:25:29;;;;;;;42.37;13.77;;;;;;;0.83;100.00;100016.09;4828866;29;20308;-61
2022/01/26 09:27:56;;;;;;;42.97;14.30;;;;;;;0.72;100.00;100001.94;4832517;29;20109;-62
2022/01/26 09:30:23;;;;;;;35.03;12.43;;;;;;;0.63;100.00;100017.56;4825060;29;20544;-61
2022/01/26 09:32:48;;;;;;;38.20;13.80;;;;;;;0.71;100.00;100013.41;4831049;29;20277;-61
2022/01/26 09:35:14;;;;;;;38.60;13.57;;;;;;;0.86;100.00;100018.50;4842817;29;20280;-60
2022/01/26 09:37:41;;;;;;;40.03;14.10;;;;;;;0.69;100.00;100007.44;4827326;29;20037;-59
2022/01/26 09:40:08;;;;;;;34.60;12.87;;;;;;;0.84;100.00;100013.34;4825150;29;20100;-60
2022/01/26 09:42:35;;;;;;;33.50;13.23;;;;;;;0.47;100.00;100006.47;4833608;29;20277;-61
2022/01/26 09:45:03;;;;;;;34.70;13.93;;;;;;;0.38;100.00;100007.16;4843355;29;20349;-60
2022/01/26 09:47:28;;;;;;;37.87;13.80;;;;;;;0.76;100.00;100007.84;4843283;29;20843;-62
2022/01/26 09:49:54;;;;;;;34.57;13.47;;;;;;;0.43;100.00;100013.75;4843430;29;20273;-59
2022/01/26 09:52:32;;;;;;;36.23;13.50;;;;;;;0.76;100.00;100010.47;4843396;29;20492;-60
2022/01/26 09:55:01;;;;;;;34.87;13.17;;;;;;;0.59;100.00;100000.31;4843241;29;20514;-61
2022/01/26 09:57:28;;;;;;;36.37;12.13;;;;;;;0.93;100.00;99991.63;4843030;29;20269;-62
2022/01/26 09:59:54;;;;;;;32.23;12.33;;;;;;;0.90;100.00;100004.19;4843003;29;20274;-61
2022/01/26 10:02:29;;;;;;;37.43;14.27;;;;;;;0.73;100.00;100003.63;4833133;29;20356;-60
2022/01/26 10:04:56;;;;;;;35.93;12.53;;;;;;;1.01;100.00;99993.69;4824448;29;20335;-60
2022/01/26 10:10:18;;;;;;;26.97;11.03;;;;;;;1.05;100.00;99997.75;4825655;29;20281;-60
2022/01/26 10:15:40;;;;;;;29.70;11.17;;;;;;;1.29;100.00;99992.44;4834960;29;20313;-61
2022/01/26 10:18:08;;;;;;;29.10;10.93;;;;;;;1.44;100.00;100000.00;4833724;29;20361;-62
2022/01/26 10:20:46;;;;;;;25.77;10.70;;;;;;;1.45;100.00;99993.78;4824097;29;20278;-61
2022/01/26 10:23:21;;;;;;;28.67;12.70;;;;;;;1.54;100.00;99980.84;4825888;29;20305;-62
2022/01/26 10:26:13;;;;;;;26.33;10.60;;;;;;;1.38;100.00;99981.22;4825858;29;20333;-61
2022/01/26 10:29:00;;;;;;;25.47;10.10;;;;;;;1.37;100.00;99979.53;4820539;29;20298;-61
2022/01/26 10:31:32;;;;;;;21.57;9.87;;;;;;;1.30;100.00;99976.53;4822122;29;20273;-62
2022/01/26 10:34:10;;;;;;;22.80;9.13;;;;;;;1.58;100.00;99977.03;4823628;29;20609;-63
2022/01/26 10:36:43;;;;;;;22.30;9.47;;;;;;;1.55;100.00;99983.38;4829059;29;20274;-61
2022/01/26 10:39:12;;;;;;;20.97;8.97;;;;;;;1.42;100.00;99986.13;4830822;29;20835;-62
2022/01/26 10:41:40;;;;;;;26.70;10.03;;;;;;;1.51;100.00;99983.72;4832430;29;20272;-61
2022/01/26 10:44:06;;;;;;;27.17;10.00;;;;;;;1.62;100.00;99973.19;4833184;29;20282;-62
2022/01/26 10:46:39;;;;;;;24.20;10.00;;;;;;;1.28;100.00;99973.16;4822854;29;20325;-63
2022/01/26 10:49:14;;;;;;;26.42;10.10;;;;;;;1.41;100.00;99959.91;4824370;29;20285;-62
2022/01/26 10:54:36;;;;;;;26.00;10.37;;;;;;;1.72;100.00;99966.28;4834874;29;20277;-61
2022/01/26 10:57:07;;;;;;;21.53;9.80;;;;;;;1.70;100.00;99955.84;4823103;29;20270;-62
2022/01/26 10:59:36;;;;;;;23.17;10.30;;;;;;;2.10;100.00;99950.88;4823866;29;20629;-60
2022/01/26 11:02:03;;;;;;;23.33;10.47;;;;;;;1.61;100.00;99955.75;4824043;29;20289;-61
2022/01/26 11:04:29;;;;;;;23.47;9.27;;;;;;;1.77;100.00;99964.09;4823668;29;20302;-60
2022/01/26 11:06:54;;;;;;;25.87;11.13;;;;;;;1.79;100.00;99947.22;4822122;29;20336;-61
2022/01/26 11:09:24;;;;;;;18.30;8.17;;;;;;;1.36;100.00;99959.44;4822693;29;20101;-60
2022/01/26 11:12:07;;;;;;;21.60;9.53;;;;;;;1.84;100.00;99952.13;4823656;29;20053;-60
2022/01/26 11:14:49;;;;;;;22.80;9.70;;;;;;;2.06;100.00;99954.75;4823839;29;20282;-66
2022/01/26 11:17:27;;;;;;;21.00;9.50;;;;;;;1.90;100.00;99940.25;4824086;29;20277;-61
2022/01/26 11:19:54;;;;;;;20.07;9.47;;;;;;;1.61;100.00;99919.69;4823548;29;20274;-59
2022/01/26 11:22:26;;;;;;;21.10;9.23;;;;;;;1.62;100.00;99923.13;4825795;29;20278;-60
2022/01/26 11:24:52;;;;;;;20.47;9.50;;;;;;;1.38;100.00;99933.81;4825601;29;20282;-59
2022/01/26 11:27:18;;;;;;;20.70;9.03;;;;;;;1.63;100.00;99924.81;4828058;29;20309;-59
2022/01/26 11:29:48;;;;;;;23.93;9.50;;;;;;;1.46;100.00;99934.06;4822966;29;20310;-59
2022/01/26 11:32:27;;;;;;;23.47;10.20;;;;;;;1.88;100.00;99921.09;4823514;29;20353;-59
2022/01/26 11:34:54;;;;;;;21.83;10.03;;;;;;;1.47;100.00;99911.19;4823437;29;20343;-59
2022/01/26 11:37:45;;;;;;;20.00;9.23;;;;;;;1.81;100.00;99908.41;4826515;29;20274;-59
2022/01/26 11:45:37;;;;;;;20.87;8.70;;;;;;;1.53;100.00;99908.06;4824175;29;20349;-60
2022/01/26 11:48:07;;;;;;;18.63;8.63;;;;;;;1.81;100.00;99904.94;4822655;29;20270;-60
2022/01/26 11:50:34;;;;;;;20.37;9.00;;;;;;;2.26;100.00;99913.56;4823080;29;20373;-60
2022/01/26 11:53:02;;;;;;;23.33;10.03;;;;;;;1.85;100.00;99908.97;4822291;29;20278;-59
2022/01/26 11:55:36;;;;;;;22.10;9.80;;;;;;;2.23;100.00;99905.91;4823204;29;20744;-59
2022/01/26 11:58:09;;;;;;;21.63;9.40;;;;;;;2.11;100.00;99893.72;4823281;29;20270;-59
2022/01/26 12:03:28;;;;;;;24.37;9.67;;;;;;;2.05;100.00;99892.44;4823025;29;20752;-60
2022/01/26 12:05:56;;;;;;;22.00;10.10;;;;;;;1.79;100.00;99893.69;4829599;29;20277;-59
2022/01/26 12:08:31;;;;;;;19.67;8.90;;;;;;;1.82;100.00;99882.91;4824199;29;20274;-59
2022/01/26 12:10:57;;;;;;;22.13;9.53;;;;;;;1.76;100.00;99880.75;4824506;29;20324;-59
2022/01/26 12:13:28;;;;;;;23.27;9.83;;;;;;;2.12;100.00;99890.13;4824630;29;20799;-59
2022/01/26 12:15:58;;;;;;;21.57;9.50;;;;;;;1.93;100.00;99903.97;4822148;29;20018;-59
2022/01/26 12:18:33;;;;;;;20.90;10.60;;;;;;;1.90;100.00;99898.94;4822447;29;20281;-59
2022/01/26 12:33:05;;;;;;;22.60;10.20;;;;;;;2.11;100.00;99883.16;4840175;29;20911;-59
2022/01/26 12:38:05;;;;;;;25.73;10.47;;;;;;;2.15;100.00;99876.69;4827864;29;20262;-59
2022/01/26 12:43:37;;;;;;;28.07;11.43;;;;;;;2.72;100.00;99864.94;4828547;29;20261;-59
2022/01/26 12:46:06;;;;;;;25.47;9.87;;;;;;;2.14;100.00;99875.84;4825542;29;20290;-59
2022/01/26 12:48:34;;;;;;;26.37;10.97;;;;;;;2.22;100.00;99877.03;4831021;29;20285;-59
2022/01/26 12:51:02;;;;;;;21.17;9.77;;;;;;;2.06;100.00;99880.09;4826322;29;20262;-59
2022/01/26 12:53:30;;;;;;;24.77;11.23;;;;;;;1.81;100.00;99884.69;4829808;29;20444;-59
2022/01/26 12:56:00;;;;;;;30.83;11.27;;;;;;;1.99;100.00;99878.88;4830888;29;20403;-60
2022/01/26 12:58:28;;;;;;;24.13;10.27;;;;;;;1.88;100.00;99877.13;4830488;29;20349;-59
2022/01/26 13:01:00;;;;;;;25.13;11.10;;;;;;;2.16;100.00;99875.75;4831733;29;20277;-59
2022/01/26 13:03:29;;;;;;;22.93;10.33;;;;;;;1.97;100.00;99880.81;4825297;29;20262;-60
2022/01/26 13:06:25;;;;;;;27.33;11.67;;;;;;;2.14;100.00;99877.66;4825740;29;20760;-59
2022/01/26 13:08:59;;;;;;;23.93;9.67;;;;;;;1.96;100.00;99882.59;4817528;29;20298;-59
2022/01/26 13:11:25;;;;;;;;;;;;;;;2.17;100.00;99870.34;4826034;29;20301;-59
2022/01/26 13:14:11;;;;;;;24.43;10.97;;;;;;;2.19;100.00;99871.03;4828061;29;19916;-60
2022/01/26 13:16:39;;;;;;;27.00;11.57;;;;;;;2.24;100.00;99854.00;4827789;29;20700;-59
2022/01/26 13:27:05;;;;;;;27.40;12.23;;;;;;;1.96;100.00;99855.44;4824741;29;20365;-60
2022/01/26 13:29:52;;;;;;;26.33;11.33;;;;;;;2.22;100.00;99851.50;4825019;29;20281;-59
2022/01/26 13:32:59;;;;;;;26.10;12.03;;;;;;;2.00;100.00;99847.16;4812844;29;20274;-59
2022/01/26 13:35:23;;;;;;;22.07;11.53;;;;;;;1.89;100.00;99856.88;4824879;29;20289;-59